createdAt,value
2022-08-20T00:00:47.982Z,10.02
2022-08-20T00:03:17.736Z,11.38
2022-08-20T00:05:51.932Z,10.55
2022-08-20T00:08:25.261Z,9.35
2022-08-20T00:10:55.838Z,7.78
2022-08-20T00:13:26.311Z,11.57
2022-08-20T00:15:54.188Z,7.47
2022-08-20T00:18:22.420Z,11.75
2022-08-20T00:20:52.769Z,12.90
2022-08-20T00:23:21.688Z,8.50
2022-08-20T00:25:49.896Z,10.00
2022-08-20T00:28:19.493Z,9.60
2022-08-20T00:30:47.800Z,9.15
2022-08-20T00:33:18.227Z,9.43
2022-08-20T00:35:48.432Z,13.02
2022-08-20T00:38:16.675Z,11.13
2022-08-20T00:40:46.205Z,9.13
2022-08-20T00:43:32.757Z,9.57
2022-08-20T00:46:03.112Z,10.18
2022-08-20T00:48:32.968Z,9.13
2022-08-20T00:51:05.588Z,9.05
2022-08-20T00:53:34.556Z,7.60
2022-08-20T00:56:02.480Z,8.13
2022-08-20T00:58:31.652Z,9.65
2022-08-20T01:00:59.824Z,8.85
2022-08-20T01:03:27.611Z,9.95
2022-08-20T01:05:55.337Z,9.13
2022-08-20T01:08:26.686Z,11.10
2022-08-20T01:11:10.531Z,9.82
2022-08-20T01:13:40.224Z,10.65
2022-08-20T01:16:12.739Z,11.57
2022-08-20T01:18:40.524Z,10.75
2022-08-20T01:21:08.800Z,11.52
2022-08-20T01:23:54.348Z,11.25
2022-08-20T01:26:25.809Z,12.10
2022-08-20T01:28:56.776Z,11.57
2022-08-20T01:31:26.410Z,11.27
2022-08-20T01:33:55.740Z,10.77
2022-08-20T01:36:31.573Z,9.23
2022-08-20T01:38:59.912Z,8.10
2022-08-20T01:41:37.448Z,8.85
2022-08-20T01:44:05.649Z,6.47
2022-08-20T01:46:43.771Z,7.78
2022-08-20T01:49:15.682Z,10.57
2022-08-20T01:51:51.644Z,9.10
2022-08-20T01:54:20.440Z,8.35
2022-08-20T01:56:55.140Z,9.63
2022-08-20T01:59:24.196Z,10.70
2022-08-20T02:01:52.368Z,8.07
2022-08-20T02:04:20.737Z,11.18
2022-08-20T02:06:56.581Z,9.98
2022-08-20T02:09:26.479Z,8.95
2022-08-20T02:11:55.697Z,10.10
2022-08-20T02:14:23.469Z,12.77
2022-08-20T02:16:55.307Z,12.15
2022-08-20T02:19:25.722Z,12.65
2022-08-20T02:21:56.521Z,14.23
2022-08-20T02:24:24.248Z,11.43
2022-08-20T02:26:52.351Z,11.02
2022-08-20T02:29:21.585Z,11.07
2022-08-20T02:32:32.770Z,11.57
2022-08-20T02:34:37.120Z,10.45
2022-08-20T02:37:06.741Z,12.25
2022-08-20T02:39:35.140Z,10.95
2022-08-20T02:42:03.773Z,12.02
2022-08-20T02:44:32.999Z,10.98
2022-08-20T02:47:00.893Z,10.60
2022-08-20T02:49:28.615Z,11.32
2022-08-20T02:51:56.341Z,12.43
2022-08-20T02:54:24.365Z,11.75
2022-08-20T02:56:52.719Z,10.35
2022-08-20T02:59:20.428Z,10.27
2022-08-20T03:01:59.974Z,11.60
2022-08-20T03:04:29.136Z,11.57
2022-08-20T03:06:57.201Z,9.48
2022-08-20T03:09:24.930Z,11.07
2022-08-20T03:11:52.775Z,13.57
2022-08-20T03:14:20.603Z,8.05
2022-08-20T03:16:49.776Z,10.35
2022-08-20T03:19:17.736Z,9.10
2022-08-20T03:21:45.477Z,9.65
2022-08-20T03:24:13.296Z,10.25
2022-08-20T03:26:41.153Z,9.65
2022-08-20T03:29:09.021Z,8.63
2022-08-20T03:31:36.765Z,11.25
2022-08-20T03:34:06.308Z,8.05
2022-08-20T03:36:34.131Z,8.50
2022-08-20T03:39:06.158Z,9.70
2022-08-20T03:41:33.887Z,8.00
2022-08-20T03:44:01.637Z,7.72
2022-08-20T03:46:29.798Z,7.25
2022-08-20T03:49:00.424Z,8.18
2022-08-20T03:51:31.537Z,7.88
2022-08-20T03:54:03.079Z,8.73
2022-08-20T03:56:31.637Z,7.05
2022-08-20T03:58:59.523Z,5.53
2022-08-20T04:01:44.544Z,7.50
2022-08-20T04:04:14.302Z,10.43
2022-08-20T04:06:43.881Z,7.20
2022-08-20T04:09:12.184Z,7.25
2022-08-20T04:11:40.328Z,7.00
2022-08-20T04:14:08.091Z,6.18
2022-08-20T04:16:37.666Z,6.55
2022-08-20T04:19:06.112Z,6.70
2022-08-20T04:21:34.956Z,8.63
2022-08-20T04:24:05.955Z,6.30
2022-08-20T04:26:37.100Z,8.13
2022-08-20T04:29:04.995Z,7.15
2022-08-20T04:31:34.104Z,6.15
2022-08-20T04:34:02.904Z,5.85
2022-08-20T04:36:30.732Z,6.40
2022-08-20T04:38:58.412Z,7.47
2022-08-20T04:41:27.909Z,6.97
2022-08-20T04:43:56.564Z,5.47
2022-08-20T04:46:28.410Z,6.22
2022-08-20T04:48:57.018Z,9.73
2022-08-20T04:51:25.106Z,6.63
2022-08-20T04:53:56.113Z,7.93
2022-08-20T04:56:27.889Z,6.63
2022-08-20T04:58:58.605Z,9.27
2022-08-20T05:01:27.040Z,6.70
2022-08-20T05:03:55.642Z,8.52
2022-08-20T05:06:25.731Z,9.07
2022-08-20T05:08:53.564Z,6.85
2022-08-20T05:11:33.468Z,9.05
2022-08-20T05:14:08.540Z,8.57
2022-08-20T05:16:40.665Z,10.45
2022-08-20T05:19:10.087Z,9.02
2022-08-20T05:21:38.012Z,7.72
2022-08-20T05:24:06.437Z,9.80
2022-08-20T05:26:34.319Z,11.32
2022-08-20T05:29:04.620Z,7.50
2022-08-20T05:31:34.972Z,7.85
2022-08-20T05:34:03.155Z,7.43
2022-08-20T05:36:30.934Z,9.77
2022-08-20T05:38:58.909Z,9.63
2022-08-20T05:41:30.004Z,8.30
2022-08-20T05:44:00.983Z,9.77
2022-08-20T05:46:30.967Z,7.72
2022-08-20T05:49:01.212Z,8.75
2022-08-20T05:51:30.089Z,12.38
2022-08-20T05:53:59.703Z,8.65
2022-08-20T05:56:30.105Z,8.55
2022-08-20T05:58:58.424Z,9.40
2022-08-20T06:01:26.194Z,9.82
2022-08-20T06:04:11.763Z,12.70
2022-08-20T06:06:45.596Z,7.97
2022-08-20T06:09:14.645Z,14.40
2022-08-20T06:11:42.556Z,9.13
2022-08-20T06:14:10.340Z,8.93
2022-08-20T06:16:38.375Z,9.85
2022-08-20T06:19:06.685Z,8.63
2022-08-20T06:21:40.988Z,9.50
2022-08-20T06:24:09.383Z,10.68
2022-08-20T06:26:37.704Z,7.38
2022-08-20T06:29:06.592Z,8.60
2022-08-20T06:31:39.688Z,7.90
2022-08-20T06:34:08.180Z,6.10
2022-08-20T06:36:36.495Z,7.35
2022-08-20T06:39:05.660Z,6.72
2022-08-20T06:41:36.098Z,7.70
2022-08-20T06:44:05.462Z,8.20
2022-08-20T06:46:38.615Z,8.70
2022-08-20T06:49:08.521Z,7.15
2022-08-20T06:51:37.558Z,9.23
2022-08-20T06:54:09.189Z,6.43
2022-08-20T06:56:36.932Z,6.70
2022-08-20T06:59:04.847Z,7.47
2022-08-20T07:01:32.804Z,5.70
2022-08-20T07:04:00.535Z,6.20
2022-08-20T07:06:28.777Z,5.95
2022-08-20T07:08:56.883Z,5.32
2022-08-20T07:11:28.052Z,6.00
2022-08-20T07:13:57.885Z,5.20
2022-08-20T07:16:26.020Z,5.10
2022-08-20T07:18:53.890Z,6.10
2022-08-20T07:21:21.628Z,6.25
2022-08-20T07:23:49.776Z,6.43
2022-08-20T07:26:17.826Z,9.93
2022-08-20T07:28:47.068Z,7.15
2022-08-20T07:31:35.030Z,6.15
2022-08-20T07:34:03.304Z,6.95
2022-08-20T07:36:31.492Z,7.55
2022-08-20T07:38:59.325Z,6.53
2022-08-20T07:41:34.286Z,7.53
2022-08-20T07:44:03.640Z,7.05
2022-08-20T07:46:32.189Z,7.75
2022-08-20T07:49:00.231Z,7.47
2022-08-20T07:51:28.502Z,7.97
2022-08-20T07:53:58.106Z,9.35
2022-08-20T07:56:26.492Z,6.28
2022-08-20T07:58:58.991Z,6.47
2022-08-20T08:01:31.498Z,6.85
2022-08-20T08:04:00.436Z,6.25
2022-08-20T08:06:31.074Z,6.28
2022-08-20T08:09:04.449Z,7.95
2022-08-20T08:11:34.575Z,6.70
2022-08-20T08:14:02.727Z,4.57
2022-08-20T08:16:32.322Z,6.05
2022-08-20T08:19:03.068Z,5.85
2022-08-20T08:21:32.099Z,5.50
2022-08-20T08:24:00.001Z,5.85
2022-08-20T08:26:28.810Z,5.55
2022-08-20T08:28:57.988Z,6.18
2022-08-20T08:31:25.780Z,6.97
2022-08-20T08:33:56.180Z,5.88
2022-08-20T08:36:26.981Z,8.68
2022-08-20T08:38:55.764Z,5.60
2022-08-20T08:41:34.472Z,7.63
2022-08-20T08:44:08.100Z,5.55
2022-08-20T08:46:40.436Z,5.68
2022-08-20T08:49:11.651Z,6.15
2022-08-20T08:51:42.182Z,5.20
2022-08-20T08:54:10.787Z,4.38
2022-08-20T08:56:38.532Z,5.35
2022-08-20T08:59:08.663Z,4.30
2022-08-20T09:01:54.054Z,5.20
2022-08-20T09:04:29.074Z,6.05
2022-08-20T09:06:57.315Z,8.18
2022-08-20T09:09:28.049Z,5.43
2022-08-20T09:11:57.754Z,4.22
2022-08-20T09:14:26.701Z,4.53
2022-08-20T09:16:54.477Z,3.83
2022-08-20T09:19:22.266Z,5.47
2022-08-20T09:21:51.344Z,5.45
2022-08-20T09:24:19.268Z,5.15
2022-08-20T09:26:47.071Z,5.38
2022-08-20T09:29:15.013Z,4.75
2022-08-20T09:31:42.882Z,5.05
2022-08-20T09:34:10.757Z,5.88
2022-08-20T09:36:38.433Z,4.63
2022-08-20T09:39:07.700Z,5.10
2022-08-20T09:41:35.490Z,4.65
2022-08-20T09:44:03.483Z,7.00
2022-08-20T09:46:31.175Z,3.60
2022-08-20T09:48:58.935Z,5.72
2022-08-20T09:51:26.860Z,8.10
2022-08-20T09:53:55.343Z,3.28
2022-08-20T09:56:26.529Z,5.28
2022-08-20T09:58:57.195Z,5.38
2022-08-20T10:01:26.727Z,7.60
2022-08-20T10:03:54.498Z,3.38
2022-08-20T10:06:22.230Z,3.22
2022-08-20T10:08:50.290Z,3.83
2022-08-20T10:11:18.188Z,2.35
2022-08-20T10:13:47.292Z,2.97
2022-08-20T10:16:15.042Z,3.17
2022-08-20T10:18:42.772Z,3.95
2022-08-20T10:21:11.134Z,3.38
2022-08-20T10:23:38.876Z,3.20
2022-08-20T10:26:08.426Z,2.17
2022-08-20T10:28:36.653Z,2.97
2022-08-20T10:31:08.505Z,2.40
2022-08-20T10:33:36.805Z,4.40
2022-08-20T10:36:07.668Z,4.28
2022-08-20T10:38:35.416Z,4.93
2022-08-20T10:41:03.172Z,3.75
2022-08-20T10:43:30.980Z,3.50
2022-08-20T10:45:58.716Z,3.38
2022-08-20T10:48:27.930Z,4.13
2022-08-20T10:50:55.859Z,2.20
2022-08-20T10:53:23.569Z,4.18
2022-08-20T10:55:51.350Z,2.33
2022-08-20T10:58:19.228Z,2.22
2022-08-20T11:00:50.928Z,2.60
2022-08-20T11:03:18.854Z,4.03
2022-08-20T11:05:48.318Z,3.58
2022-08-20T11:08:16.208Z,2.80
2022-08-20T11:11:03.458Z,1.65
2022-08-20T11:13:31.183Z,2.35
2022-08-20T11:15:58.905Z,2.17
2022-08-20T11:18:26.646Z,2.90
2022-08-20T11:20:56.283Z,2.83
2022-08-20T11:23:24.017Z,2.88
2022-08-20T11:25:51.792Z,1.92
2022-08-20T11:28:31.440Z,4.47
2022-08-20T11:31:00.784Z,3.67
2022-08-20T11:33:29.359Z,2.90
2022-08-20T11:35:58.535Z,5.00
2022-08-20T11:38:26.597Z,5.50
2022-08-20T11:40:54.325Z,2.80
2022-08-20T11:43:22.027Z,3.58
2022-08-20T11:45:52.270Z,1.95
2022-08-20T11:48:20.031Z,4.30
2022-08-20T11:50:48.128Z,5.47
2022-08-20T11:53:17.299Z,2.25
2022-08-20T11:55:45.087Z,2.65
2022-08-20T11:58:13.563Z,4.45
2022-08-20T12:00:41.787Z,5.10
2022-08-20T12:03:10.414Z,4.68
2022-08-20T12:05:40.267Z,3.25
2022-08-20T12:08:08.345Z,3.08
2022-08-20T12:10:38.345Z,3.40
2022-08-20T12:13:06.785Z,4.18
2022-08-20T12:15:34.726Z,2.15
2022-08-20T12:18:03.256Z,3.47
2022-08-20T12:20:31.018Z,6.65
2022-08-20T12:22:58.835Z,2.40
2022-08-20T12:25:27.248Z,3.08
2022-08-20T12:27:56.642Z,2.88
2022-08-20T12:30:25.430Z,2.55
2022-08-20T12:32:53.237Z,4.70
2022-08-20T12:35:21.436Z,5.65
2022-08-20T12:37:49.283Z,2.20
2022-08-20T12:40:24.453Z,2.35
2022-08-20T12:43:04.133Z,3.83
2022-08-20T12:45:32.746Z,3.60
2022-08-20T12:48:10.376Z,4.88
2022-08-20T12:50:39.472Z,6.97
2022-08-20T12:53:07.384Z,5.05
2022-08-20T12:55:35.927Z,4.30
2022-08-20T12:58:08.740Z,5.63
2022-08-20T13:00:38.902Z,8.05
2022-08-20T13:03:12.901Z,3.47
2022-08-20T13:05:41.785Z,7.47
2022-08-20T13:08:11.796Z,3.78
2022-08-20T13:10:44.234Z,2.38
2022-08-20T13:13:13.833Z,5.50
2022-08-20T13:15:41.887Z,7.45
2022-08-20T13:18:09.923Z,5.07
2022-08-20T13:20:37.689Z,5.47
2022-08-20T13:23:05.996Z,3.17
2022-08-20T13:25:33.988Z,8.75
2022-08-20T13:28:04.829Z,3.42
2022-08-20T13:30:36.629Z,3.58
2022-08-20T13:33:05.945Z,5.15
2022-08-20T13:35:33.813Z,3.25
2022-08-20T13:38:03.882Z,6.40
2022-08-20T13:40:31.851Z,3.25
2022-08-20T13:43:04.486Z,3.03
2022-08-20T13:45:36.147Z,3.88
2022-08-20T13:48:05.348Z,2.88
2022-08-20T13:50:36.294Z,5.57
2022-08-20T13:53:05.512Z,7.82
2022-08-20T13:55:35.157Z,6.32
2022-08-20T13:58:07.874Z,2.65
2022-08-20T14:00:38.433Z,5.68
2022-08-20T14:03:07.285Z,5.80
2022-08-20T14:05:35.674Z,4.45
2022-08-20T14:08:09.139Z,4.15
2022-08-20T14:10:42.739Z,5.22
2022-08-20T14:13:15.159Z,3.38
2022-08-20T14:15:44.902Z,4.50
2022-08-20T14:18:15.886Z,4.25
2022-08-20T14:20:45.498Z,5.18
2022-08-20T14:23:13.500Z,3.20
2022-08-20T14:25:41.309Z,2.72
2022-08-20T14:28:13.331Z,4.63
2022-08-20T14:30:42.400Z,5.03
2022-08-20T14:33:11.453Z,2.95
2022-08-20T14:35:40.033Z,1.83
2022-08-20T14:38:08.668Z,4.10
2022-08-20T14:40:36.887Z,3.80
2022-08-20T14:43:04.772Z,3.25
2022-08-20T14:45:32.608Z,4.60
2022-08-20T14:48:00.489Z,3.47
2022-08-20T14:50:33.227Z,2.50
2022-08-20T14:53:01.902Z,4.20
2022-08-20T14:55:31.751Z,5.32
2022-08-20T14:57:59.797Z,2.92
2022-08-20T15:00:30.710Z,1.20
2022-08-20T15:02:58.834Z,3.08
2022-08-20T15:05:27.076Z,3.70
2022-08-20T15:07:59.417Z,4.38
2022-08-20T15:10:29.099Z,3.75
2022-08-20T15:12:57.407Z,3.70
2022-08-20T15:15:25.914Z,3.78
2022-08-20T15:17:55.906Z,4.45
2022-08-20T15:20:26.043Z,3.90
2022-08-20T15:22:53.964Z,2.08
2022-08-20T15:25:25.074Z,1.75
2022-08-20T15:27:56.284Z,1.98
2022-08-20T15:30:30.250Z,3.35
2022-08-20T15:32:58.430Z,3.92
2022-08-20T15:35:28.152Z,3.53
2022-08-20T15:37:58.074Z,2.95
2022-08-20T15:40:29.518Z,5.05
2022-08-20T15:42:57.516Z,4.18
2022-08-20T15:45:25.955Z,2.35
2022-08-20T15:47:56.277Z,4.55
2022-08-20T15:50:50.614Z,3.47
2022-08-20T15:53:21.460Z,7.85
2022-08-20T15:55:57.178Z,4.63
2022-08-20T15:58:28.495Z,2.50
2022-08-20T16:01:23.731Z,3.47
2022-08-20T16:04:15.752Z,1.77
2022-08-20T16:06:44.385Z,4.57
2022-08-20T16:09:24.756Z,5.32
2022-08-20T16:11:59.759Z,3.33
2022-08-20T16:14:29.001Z,3.13
2022-08-20T16:17:01.630Z,6.15
2022-08-20T16:19:33.724Z,4.28
2022-08-20T16:22:01.952Z,3.75
2022-08-20T16:24:29.892Z,4.50
2022-08-20T16:27:08.707Z,3.08
2022-08-20T16:29:52.441Z,3.03
2022-08-20T16:32:35.558Z,3.15
2022-08-20T16:35:11.613Z,5.65
2022-08-20T16:37:43.896Z,1.48
2022-08-20T16:40:20.559Z,5.03
2022-08-20T16:42:52.229Z,4.05
2022-08-20T16:45:22.377Z,1.73
2022-08-20T16:47:51.134Z,4.43
2022-08-20T16:50:21.620Z,3.25
2022-08-20T16:52:49.968Z,3.30
2022-08-20T16:55:18.499Z,2.83
2022-08-20T16:57:47.645Z,2.50
2022-08-20T17:00:29.278Z,5.57
2022-08-20T17:02:59.944Z,2.00
2022-08-20T17:05:29.795Z,1.98
2022-08-20T17:08:03.076Z,1.45
2022-08-20T17:10:33.893Z,3.20
2022-08-20T17:13:05.768Z,2.33
2022-08-20T17:15:35.984Z,2.65
2022-08-20T17:18:18.857Z,4.45
2022-08-20T17:20:46.837Z,4.18
2022-08-20T17:23:18.124Z,5.90
2022-08-20T17:25:47.314Z,4.15
2022-08-20T17:28:16.284Z,3.53
2022-08-20T17:30:47.276Z,4.63
2022-08-20T17:33:28.749Z,4.30
2022-08-20T17:35:58.773Z,5.38
2022-08-20T17:38:32.999Z,3.90
2022-08-20T17:41:04.087Z,2.90
2022-08-20T17:43:33.658Z,3.40
2022-08-20T17:46:05.197Z,1.98
2022-08-20T17:48:42.837Z,3.90
2022-08-20T17:51:16.175Z,8.18
2022-08-20T17:53:45.009Z,4.28
2022-08-20T17:56:17.327Z,2.00
2022-08-20T17:58:54.997Z,2.03
2022-08-20T18:01:25.768Z,2.92
2022-08-20T18:03:54.135Z,3.67
2022-08-20T18:06:30.650Z,2.35
2022-08-20T18:09:04.693Z,2.03
2022-08-20T18:11:34.966Z,2.28
2022-08-20T18:14:19.037Z,3.35
2022-08-20T18:16:58.564Z,3.72
2022-08-20T18:19:38.829Z,2.15
2022-08-20T18:22:11.213Z,5.43
2022-08-20T18:24:44.898Z,3.13
2022-08-20T18:27:15.797Z,3.83
2022-08-20T18:29:46.590Z,2.95
2022-08-20T18:32:27.615Z,3.80
2022-08-20T18:34:55.480Z,1.67
2022-08-20T18:37:25.945Z,2.58
2022-08-20T18:39:53.961Z,2.30
2022-08-20T18:42:27.183Z,3.45
2022-08-20T18:44:55.848Z,2.00
2022-08-20T18:47:29.758Z,2.17
2022-08-20T18:50:06.242Z,3.67
2022-08-20T18:52:46.229Z,3.70
2022-08-20T18:55:28.569Z,2.28
2022-08-20T18:58:00.256Z,7.97
2022-08-20T19:00:32.079Z,3.75
2022-08-20T19:03:11.056Z,4.20
2022-08-20T19:05:43.935Z,5.63
2022-08-20T19:08:15.612Z,1.85
2022-08-20T19:10:48.633Z,2.13
2022-08-20T19:13:46.053Z,3.35
2022-08-20T19:16:17.635Z,4.25
2022-08-20T19:18:50.446Z,4.95
2022-08-20T19:21:22.985Z,4.43
2022-08-20T19:23:56.996Z,4.57
2022-08-20T19:26:26.208Z,2.60
2022-08-20T19:28:56.731Z,2.38
2022-08-20T19:31:26.032Z,2.10
2022-08-20T19:34:04.095Z,2.05
2022-08-20T19:36:54.675Z,7.40
2022-08-20T19:39:23.936Z,1.90
2022-08-20T19:41:57.776Z,3.63
2022-08-20T19:44:30.598Z,2.15
2022-08-20T19:46:59.474Z,1.95
2022-08-20T19:49:33.781Z,2.05
2022-08-20T19:52:10.880Z,4.82
2022-08-20T19:54:48.477Z,5.50
2022-08-20T19:57:17.883Z,1.73
2022-08-20T19:59:54.488Z,1.67
2022-08-20T20:02:24.090Z,2.67
2022-08-20T20:04:55.694Z,2.97
2022-08-20T20:07:28.889Z,3.00
2022-08-20T20:09:58.328Z,2.03
2022-08-20T20:12:26.457Z,4.05
2022-08-20T20:14:55.165Z,3.70
2022-08-20T20:17:25.789Z,3.20
2022-08-20T20:19:59.149Z,4.70
2022-08-20T20:22:29.307Z,4.57
2022-08-20T20:25:05.945Z,1.67
2022-08-20T20:27:36.335Z,2.97
2022-08-20T20:30:07.724Z,1.77
2022-08-20T20:32:35.695Z,3.10
2022-08-20T20:35:06.755Z,2.05
2022-08-20T20:37:50.278Z,2.50
2022-08-20T20:40:25.458Z,2.72
2022-08-20T20:43:03.071Z,5.75
2022-08-20T20:45:34.715Z,5.88
2022-08-20T20:48:12.525Z,8.80
2022-08-20T20:50:42.213Z,6.45
2022-08-20T20:53:10.115Z,7.32
2022-08-20T20:55:39.769Z,5.28
2022-08-20T20:58:07.913Z,6.07
2022-08-20T21:00:35.988Z,4.35
2022-08-20T21:03:04.225Z,6.88
2022-08-20T21:05:33.361Z,6.10
2022-08-20T21:08:05.244Z,7.70
2022-08-20T21:10:37.400Z,5.65
2022-08-20T21:13:05.375Z,6.10
2022-08-20T21:15:33.932Z,5.45
2022-08-20T21:18:03.513Z,4.07
2022-08-20T21:20:31.732Z,3.85
2022-08-20T21:22:59.741Z,4.15
2022-08-20T21:25:30.626Z,4.55
2022-08-20T21:27:58.401Z,4.07
2022-08-20T21:30:26.923Z,3.53
2022-08-20T21:32:55.628Z,4.03
2022-08-20T21:35:23.586Z,3.45
2022-08-20T21:37:51.367Z,3.15
2022-08-20T21:40:22.113Z,3.95
2022-08-20T21:42:51.511Z,3.55
2022-08-20T21:45:19.770Z,2.35
2022-08-20T21:47:48.926Z,3.17
2022-08-20T21:50:18.606Z,3.22
2022-08-20T21:52:59.332Z,7.95
2022-08-20T21:55:36.170Z,2.28
2022-08-20T21:58:11.285Z,3.08
2022-08-20T22:00:53.584Z,5.32
2022-08-20T22:03:22.643Z,8.70
2022-08-20T22:05:51.557Z,4.38
2022-08-20T22:08:19.624Z,4.50
2022-08-20T22:10:47.580Z,4.90
2022-08-20T22:13:17.163Z,3.38
2022-08-20T22:15:44.885Z,3.30
2022-08-20T22:18:12.558Z,2.88
2022-08-20T22:20:40.861Z,4.10
2022-08-20T22:23:08.634Z,2.83
2022-08-20T22:25:36.940Z,2.30
2022-08-20T22:28:05.184Z,1.70
2022-08-20T22:30:34.291Z,2.60
2022-08-20T22:33:04.558Z,3.60
2022-08-20T22:35:32.706Z,2.45
2022-08-20T22:38:00.519Z,2.30
2022-08-20T22:40:30.516Z,4.18
2022-08-20T22:42:58.443Z,1.98
2022-08-20T22:45:26.376Z,3.88
2022-08-20T22:47:55.501Z,3.17
2022-08-20T22:50:24.939Z,3.42
2022-08-20T22:52:53.252Z,4.40
2022-08-20T22:55:21.465Z,2.95
2022-08-20T22:57:49.468Z,3.53
2022-08-20T23:00:19.697Z,3.45
2022-08-20T23:03:00.027Z,3.47
2022-08-20T23:05:29.632Z,2.20
2022-08-20T23:07:58.776Z,4.25
2022-08-20T23:10:27.854Z,3.47
2022-08-20T23:12:56.943Z,2.80
2022-08-20T23:15:24.960Z,2.22
2022-08-20T23:17:53.586Z,3.45
2022-08-20T23:20:22.684Z,2.60
2022-08-20T23:22:50.437Z,2.95
2022-08-20T23:25:22.718Z,3.72
2022-08-20T23:27:52.572Z,1.83
2022-08-20T23:30:21.201Z,1.95
2022-08-20T23:32:49.164Z,3.70
2022-08-20T23:35:16.969Z,3.10
2022-08-20T23:37:48.662Z,3.75
2022-08-20T23:40:17.388Z,1.45
2022-08-20T23:42:55.308Z,3.10
2022-08-20T23:45:23.469Z,4.07
2022-08-20T23:47:51.365Z,1.98
2022-08-20T23:50:24.318Z,2.72
2022-08-20T23:52:53.539Z,2.72
2022-08-20T23:55:22.625Z,2.38
2022-08-20T23:57:50.781Z,2.67
